createdAt,value
2018-10-12T00:02:13.542Z,18.40
2018-10-12T00:04:47.500Z,17.90
2018-10-12T00:07:21.383Z,17.60
2018-10-12T00:09:55.250Z,17.87
2018-10-12T00:12:29.194Z,17.20
2018-10-12T00:15:03.055Z,16.50
2018-10-12T00:17:37.033Z,16.23
2018-10-12T00:20:11.043Z,16.33
2018-10-12T00:22:44.865Z,15.70
2018-10-12T00:25:18.643Z,16.40
2018-10-12T00:27:52.353Z,15.80
2018-10-12T00:30:26.205Z,16.03
2018-10-12T00:33:00.146Z,16.23
2018-10-12T00:35:33.943Z,16.00
2018-10-12T00:38:07.817Z,15.67
2018-10-12T00:40:41.776Z,15.93
2018-10-12T00:43:15.707Z,15.73
2018-10-12T00:45:49.512Z,16.17
2018-10-12T00:48:23.477Z,15.60
2018-10-12T00:50:57.456Z,15.23
2018-10-12T00:53:31.388Z,15.80
2018-10-12T00:56:05.240Z,15.53
2018-10-12T00:58:39.108Z,15.43
2018-10-12T01:01:13.128Z,15.73
2018-10-12T01:03:46.728Z,15.67
2018-10-12T01:06:20.711Z,15.80
2018-10-12T01:08:54.739Z,14.93
2018-10-12T01:11:28.650Z,14.83
2018-10-12T01:14:02.569Z,14.57
2018-10-12T01:16:36.590Z,15.17
2018-10-12T01:19:10.291Z,14.83
2018-10-12T01:21:44.280Z,15.50
2018-10-12T01:24:18.036Z,14.97
2018-10-12T01:26:52.273Z,14.53
2018-10-12T01:29:27.943Z,14.23
2018-10-12T01:32:02.521Z,14.37
2018-10-12T01:34:37.210Z,13.60
2018-10-12T01:37:11.204Z,13.97
2018-10-12T01:39:45.791Z,13.60
2018-10-12T01:42:20.099Z,14.30
2018-10-12T01:44:53.936Z,14.43
2018-10-12T01:47:29.020Z,12.77
2018-10-12T01:50:02.793Z,14.40
2018-10-12T01:52:36.783Z,13.73
2018-10-12T01:55:10.864Z,14.57
2018-10-12T01:57:44.669Z,13.73
2018-10-12T02:00:18.632Z,13.97
2018-10-12T02:02:52.709Z,13.30
2018-10-12T02:05:26.444Z,13.77
2018-10-12T02:08:00.488Z,12.90
2018-10-12T02:10:34.474Z,13.47
2018-10-12T02:13:08.429Z,13.20
2018-10-12T02:15:42.328Z,13.40
2018-10-12T02:18:16.344Z,13.63
2018-10-12T02:20:50.138Z,13.17
2018-10-12T02:23:24.118Z,12.60
2018-10-12T02:25:58.101Z,13.00
2018-10-12T02:28:31.865Z,12.73
2018-10-12T02:31:06.396Z,13.13
2018-10-12T02:33:40.264Z,12.57
2018-10-12T02:36:14.151Z,12.80
2018-10-12T02:38:48.073Z,13.23
2018-10-12T02:41:21.971Z,12.73
2018-10-12T02:43:55.889Z,13.87
2018-10-12T02:46:29.890Z,13.03
2018-10-12T02:49:03.905Z,12.87
2018-10-12T02:51:37.986Z,12.63
2018-10-12T02:54:11.902Z,12.67
2018-10-12T02:56:45.973Z,13.13
2018-10-12T02:59:19.873Z,13.30
2018-10-12T03:01:53.650Z,12.60
2018-10-12T03:04:27.535Z,14.00
2018-10-12T03:07:01.494Z,13.40
2018-10-12T03:09:35.430Z,13.43
2018-10-12T03:12:09.513Z,13.97
2018-10-12T03:14:43.279Z,13.50
2018-10-12T03:17:17.317Z,14.47
2018-10-12T03:19:51.229Z,13.83
2018-10-12T03:22:25.129Z,13.40
2018-10-12T03:24:59.029Z,13.60
2018-10-12T03:27:38.417Z,14.07
2018-10-12T03:30:12.383Z,14.43
2018-10-12T03:32:46.473Z,13.77
2018-10-12T03:35:20.346Z,13.83
2018-10-12T03:37:54.362Z,14.33
2018-10-12T03:40:28.281Z,14.03
2018-10-12T03:43:02.355Z,14.83
2018-10-12T03:45:36.205Z,14.93
2018-10-12T03:48:10.087Z,14.33
2018-10-12T03:50:44.046Z,14.43
2018-10-12T03:53:18.233Z,14.67
2018-10-12T03:55:52.091Z,14.93
2018-10-12T03:58:26.019Z,13.93
2018-10-12T04:00:59.830Z,14.37
2018-10-12T04:03:33.514Z,13.30
2018-10-12T04:06:07.399Z,14.33
2018-10-12T04:08:41.155Z,14.13
2018-10-12T04:11:15.026Z,14.53
2018-10-12T04:13:49.015Z,14.67
2018-10-12T04:16:22.881Z,13.63
2018-10-12T04:18:56.892Z,14.60
2018-10-12T04:21:31.011Z,13.30
2018-10-12T04:24:05.450Z,13.70
2018-10-12T04:26:39.914Z,13.90
2018-10-12T04:29:14.271Z,14.20
2018-10-12T04:31:48.253Z,14.60
2018-10-12T04:34:29.028Z,14.30
2018-10-12T04:37:03.029Z,13.90
2018-10-12T04:39:42.552Z,13.77
2018-10-12T04:42:16.707Z,13.60
2018-10-12T04:44:50.839Z,14.40
2018-10-12T04:47:26.505Z,15.63
2018-10-12T04:50:01.129Z,16.30
2018-10-12T04:52:35.145Z,16.20
2018-10-12T04:55:09.060Z,16.07
2018-10-12T04:57:42.940Z,16.40
2018-10-12T05:00:16.763Z,16.73
2018-10-12T05:02:50.670Z,16.70
2018-10-12T05:05:24.389Z,16.27
2018-10-12T05:07:58.221Z,16.93
2018-10-12T05:10:31.984Z,16.47
2018-10-12T05:13:05.933Z,17.00
2018-10-12T05:15:39.961Z,17.00
2018-10-12T05:18:13.900Z,17.50
2018-10-12T05:20:47.707Z,17.17
2018-10-12T05:23:21.577Z,18.90
2018-10-12T05:25:55.449Z,18.77
2018-10-12T05:28:30.603Z,17.80
2018-10-12T05:31:04.525Z,19.13
2018-10-12T05:33:38.395Z,18.57
2018-10-12T05:36:12.523Z,18.37
2018-10-12T05:38:46.166Z,19.33
2018-10-12T05:41:20.057Z,18.60
2018-10-12T05:43:54.045Z,18.17
2018-10-12T05:46:27.879Z,18.53
2018-10-12T05:49:07.309Z,18.70
2018-10-12T05:51:41.252Z,18.87
2018-10-12T05:54:15.383Z,18.97
2018-10-12T05:56:49.334Z,17.60
2018-10-12T05:59:23.249Z,18.00
2018-10-12T06:01:57.105Z,17.73
2018-10-12T06:04:30.937Z,17.00
2018-10-12T06:07:05.925Z,18.10
2018-10-12T06:09:39.913Z,17.43
2018-10-12T06:12:13.775Z,17.63
2018-10-12T06:14:47.947Z,16.93
2018-10-12T06:17:22.004Z,19.07
2018-10-12T06:19:56.055Z,18.33
2018-10-12T06:22:30.044Z,20.73
2018-10-12T06:25:04.042Z,20.00
2018-10-12T06:27:38.059Z,20.00
2018-10-12T06:30:12.276Z,19.47
2018-10-12T06:32:46.408Z,19.93
2018-10-12T06:35:24.348Z,19.67
2018-10-12T06:37:59.040Z,20.13
2018-10-12T06:40:33.627Z,20.03
2018-10-12T06:43:07.618Z,19.37
2018-10-12T06:45:42.921Z,21.07
2018-10-12T06:48:16.950Z,20.53
2018-10-12T06:50:51.018Z,19.77
2018-10-12T06:53:25.068Z,19.93
2018-10-12T06:55:59.196Z,21.03
2018-10-12T06:58:33.302Z,20.67
2018-10-12T07:01:07.723Z,20.87
2018-10-12T07:03:41.958Z,20.67
2018-10-12T07:06:16.496Z,21.17
2018-10-12T07:08:50.556Z,21.17
2018-10-12T07:11:24.996Z,21.03
2018-10-12T07:13:59.524Z,20.97
2018-10-12T07:16:34.890Z,20.87
2018-10-12T07:19:11.245Z,20.03
2018-10-12T07:21:45.260Z,19.63
2018-10-12T07:27:06.125Z,19.70
2018-10-12T07:29:44.793Z,20.63
2018-10-12T07:32:19.448Z,20.83
2018-10-12T07:35:06.328Z,21.13
2018-10-12T07:37:47.780Z,19.63
2018-10-12T07:40:22.580Z,21.13
2018-10-12T07:42:57.088Z,21.70
2018-10-12T07:45:37.733Z,20.40
2018-10-12T07:48:16.635Z,21.67
2018-10-12T07:51:05.849Z,21.53
2018-10-12T07:53:46.599Z,21.33
2018-10-12T08:08:01.099Z,21.63
2018-10-12T08:20:42.396Z,21.73
2018-10-12T08:36:11.835Z,22.83
2018-10-12T08:38:48.009Z,23.33
2018-10-12T08:41:28.636Z,22.97
2018-10-12T08:46:56.110Z,23.40
2018-10-12T08:53:00.621Z,23.87
2018-10-12T08:59:50.418Z,24.50
2018-10-12T09:02:25.433Z,22.50
2018-10-12T09:05:12.746Z,24.47
2018-10-12T09:09:34.830Z,23.70
2018-10-12T09:17:55.257Z,24.83
2018-10-12T09:27:04.514Z,24.83
2018-10-12T09:33:23.402Z,24.37
2018-10-12T09:38:50.944Z,23.70
2018-10-12T09:47:43.918Z,22.90
2018-10-12T09:50:26.931Z,23.73
2018-10-12T09:53:06.311Z,21.60
2018-10-12T09:55:40.920Z,22.70
2018-10-12T09:58:14.812Z,22.07
2018-10-12T10:00:55.132Z,22.57
2018-10-12T10:06:01.698Z,22.40
2018-10-12T10:11:36.255Z,23.73
2018-10-12T10:14:15.577Z,21.50
2018-10-12T10:16:57.416Z,22.33
2018-10-12T10:19:34.604Z,21.63
2018-10-12T10:22:09.056Z,22.60
2018-10-12T10:24:44.244Z,22.30
2018-10-12T10:27:18.968Z,22.50
2018-10-12T10:29:53.789Z,20.77
2018-10-12T10:32:27.925Z,21.93
2018-10-12T10:35:06.675Z,21.27
2018-10-12T10:40:22.425Z,21.70
2018-10-12T10:48:01.565Z,21.93
2018-10-12T10:50:38.073Z,22.87
2018-10-12T10:53:12.176Z,22.47
2018-10-12T10:55:47.070Z,22.23
2018-10-12T10:58:22.707Z,22.00
2018-10-12T11:00:57.892Z,22.07
2018-10-12T11:06:18.507Z,21.40
2018-10-12T11:08:52.951Z,20.33
2018-10-12T11:11:27.205Z,20.47
2018-10-12T11:14:04.699Z,21.73
2018-10-12T11:16:38.819Z,21.23
2018-10-12T11:19:13.424Z,22.50
2018-10-12T11:21:47.605Z,21.00
2018-10-12T11:24:21.933Z,22.60
2018-10-12T11:26:56.127Z,21.90
2018-10-12T11:29:30.598Z,20.73
2018-10-12T11:34:46.493Z,21.13
2018-10-12T11:37:20.763Z,22.07
2018-10-12T11:39:55.003Z,21.83
2018-10-12T11:42:35.061Z,21.43
2018-10-12T11:45:09.162Z,21.83
2018-10-12T11:47:43.163Z,20.77
2018-10-12T11:50:25.245Z,21.03
2018-10-12T11:52:59.523Z,20.93
2018-10-12T11:55:34.268Z,20.63
2018-10-12T11:58:09.413Z,19.93
2018-10-12T12:03:39.024Z,19.10
2018-10-12T12:06:13.370Z,19.47
2018-10-12T12:08:48.016Z,19.10
2018-10-12T12:11:23.205Z,19.23
2018-10-12T12:13:57.234Z,19.57
2018-10-12T12:16:31.239Z,19.43
2018-10-12T12:19:17.471Z,20.20
2018-10-12T12:21:51.418Z,18.83
2018-10-12T12:24:25.526Z,18.70
2018-10-12T12:26:59.521Z,19.07
2018-10-12T12:29:33.437Z,19.00
2018-10-12T12:32:07.474Z,18.10
2018-10-12T12:34:41.261Z,18.77
2018-10-12T12:37:15.144Z,17.90
2018-10-12T12:39:49.140Z,18.37
2018-10-12T12:42:22.881Z,18.20
2018-10-12T12:44:57.693Z,19.23
2018-10-12T12:47:31.711Z,18.90
2018-10-12T12:50:06.169Z,18.70
2018-10-12T12:52:39.907Z,17.67
2018-10-12T12:55:14.724Z,18.03
2018-10-12T12:57:48.681Z,18.77
2018-10-12T13:00:22.534Z,18.43
2018-10-12T13:02:56.341Z,18.17
2018-10-12T13:05:30.259Z,17.97
2018-10-12T13:08:04.136Z,18.47
2018-10-12T13:10:37.931Z,18.07
2018-10-12T13:13:11.774Z,17.10
2018-10-12T13:15:45.813Z,16.93
2018-10-12T13:18:19.666Z,17.17
2018-10-12T13:20:53.549Z,18.63
2018-10-12T13:23:27.605Z,18.43
2018-10-12T13:26:01.729Z,17.73
2018-10-12T13:28:35.643Z,17.77
2018-10-12T13:31:09.666Z,17.17
2018-10-12T13:33:43.687Z,17.83
2018-10-12T13:36:17.982Z,17.33
2018-10-12T13:38:51.966Z,18.53
2018-10-12T13:41:25.819Z,16.93
2018-10-12T13:43:59.771Z,17.53
2018-10-12T13:46:33.776Z,17.97
2018-10-12T13:49:08.220Z,17.63
2018-10-12T13:51:42.001Z,18.50
2018-10-12T13:54:16.173Z,18.37
2018-10-12T13:56:54.325Z,19.53
2018-10-12T13:59:29.696Z,18.07
2018-10-12T14:02:03.656Z,18.17
2018-10-12T14:04:37.600Z,17.37
2018-10-12T14:07:11.548Z,17.37
2018-10-12T14:09:45.532Z,18.53
2018-10-12T14:12:19.439Z,17.40
2018-10-12T14:14:53.351Z,17.40
2018-10-12T14:17:27.397Z,17.73
2018-10-12T14:20:01.241Z,18.77
2018-10-12T14:22:35.127Z,17.47
2018-10-12T14:25:09.009Z,17.27
2018-10-12T14:27:42.957Z,18.40
2018-10-12T14:30:17.032Z,16.83
2018-10-12T14:32:50.974Z,18.60
2018-10-12T14:35:24.948Z,18.07
2018-10-12T14:37:59.046Z,17.43
2018-10-12T14:40:32.939Z,17.70
2018-10-12T14:43:06.853Z,17.73
2018-10-12T14:45:40.808Z,19.00
2018-10-12T14:48:14.766Z,18.83
2018-10-12T14:50:48.625Z,18.57
2018-10-12T14:53:22.568Z,19.97
2018-10-12T14:55:56.523Z,19.60
2018-10-12T14:58:30.414Z,19.70
2018-10-12T15:01:04.340Z,20.30
2018-10-12T15:03:38.345Z,20.13
2018-10-12T15:06:12.371Z,20.90
2018-10-12T15:08:46.398Z,21.23
2018-10-12T15:11:21.264Z,19.90
2018-10-12T15:13:55.168Z,20.27
2018-10-12T15:16:28.987Z,18.03
2018-10-12T15:19:03.572Z,18.50
2018-10-12T15:21:37.534Z,19.97
2018-10-12T15:24:11.332Z,20.20
2018-10-12T15:26:45.238Z,20.07
2018-10-12T15:29:19.272Z,21.80
2018-10-12T15:31:53.174Z,21.20
2018-10-12T15:34:27.914Z,20.87
2018-10-12T15:37:02.250Z,21.37
2018-10-12T15:39:36.598Z,21.57
2018-10-12T15:42:13.986Z,21.83
2018-10-12T15:44:51.249Z,22.37
2018-10-12T15:47:33.393Z,21.77
2018-10-12T15:50:20.146Z,22.40
2018-10-12T15:52:54.616Z,22.33
2018-10-12T15:58:45.629Z,22.30
2018-10-12T16:01:22.435Z,21.37
2018-10-12T16:06:38.254Z,22.93
2018-10-12T16:09:12.219Z,22.57
2018-10-12T16:11:46.541Z,23.83
2018-10-12T16:14:21.663Z,21.47
2018-10-12T16:16:55.679Z,22.23
2018-10-12T16:19:30.057Z,23.13
2018-10-12T16:22:03.988Z,22.40
2018-10-12T16:24:42.149Z,22.20
2018-10-12T16:27:20.267Z,22.07
2018-10-12T16:29:55.747Z,21.93
2018-10-12T16:32:32.320Z,23.67
2018-10-12T16:35:08.084Z,22.77
2018-10-12T16:37:43.000Z,22.53
2018-10-12T16:40:18.005Z,22.40
2018-10-12T16:42:53.093Z,23.40
2018-10-12T16:45:27.295Z,22.33
2018-10-12T16:48:01.402Z,22.50
2018-10-12T16:50:35.341Z,22.93
2018-10-12T16:55:51.702Z,22.50
2018-10-12T16:58:29.273Z,22.33
2018-10-12T17:03:51.133Z,23.37
2018-10-12T17:11:50.096Z,21.53
2018-10-12T17:14:24.413Z,22.30
2018-10-12T17:17:00.753Z,23.97
2018-10-12T17:19:38.119Z,21.83
2018-10-12T17:22:12.428Z,23.30
2018-10-12T17:27:52.541Z,24.27
2018-10-12T17:35:19.346Z,24.00
2018-10-12T17:45:50.829Z,25.07
2018-10-12T17:50:16.458Z,23.90
2018-10-12T18:18:47.702Z,25.30
2018-10-12T18:22:10.425Z,24.37
2018-10-12T18:25:50.006Z,25.37
2018-10-12T18:35:27.636Z,25.53
2018-10-12T18:55:44.446Z,26.03
2018-10-12T18:58:38.928Z,25.80
2018-10-12T19:01:29.670Z,25.90
2018-10-12T19:04:30.356Z,25.97
2018-10-12T19:07:13.463Z,25.90
2018-10-12T19:13:08.963Z,24.63
2018-10-12T19:21:39.099Z,23.83
2018-10-12T19:25:22.998Z,24.57
2018-10-12T19:28:00.082Z,25.50
2018-10-12T19:56:48.172Z,24.47
2018-10-12T20:00:10.020Z,23.93
2018-10-12T20:08:43.961Z,24.17
2018-10-12T20:11:29.789Z,25.10
2018-10-12T20:14:07.079Z,24.07
2018-10-12T20:16:58.485Z,24.00
2018-10-12T20:36:11.579Z,25.80
2018-10-12T20:41:55.524Z,25.00
2018-10-12T20:48:07.083Z,25.33
2018-10-12T20:50:47.002Z,24.87
2018-10-12T20:53:27.497Z,24.70
2018-10-12T20:56:12.326Z,24.73
2018-10-12T20:58:54.555Z,25.57
2018-10-12T21:13:46.426Z,25.07
2018-10-12T21:16:23.983Z,26.23
2018-10-12T21:19:03.830Z,26.37
2018-10-12T21:24:36.009Z,24.87
2018-10-12T21:27:49.987Z,25.17
2018-10-12T21:30:29.776Z,26.87
2018-10-12T21:39:19.658Z,24.83
2018-10-12T21:42:24.768Z,26.57
2018-10-12T21:45:07.382Z,26.70
2018-10-12T21:53:40.591Z,26.90
2018-10-12T21:56:25.341Z,25.60
2018-10-12T22:01:58.391Z,25.77
2018-10-12T22:07:27.683Z,25.57
2018-10-12T22:10:07.995Z,26.30
2018-10-12T22:12:43.543Z,25.10
2018-10-12T22:15:20.112Z,25.70
2018-10-12T22:18:00.854Z,25.83
2018-10-12T22:23:36.430Z,26.57
2018-10-12T22:26:19.474Z,25.47
2018-10-12T22:28:56.734Z,26.50
2018-10-12T22:34:17.960Z,26.73
2018-10-12T22:39:44.960Z,26.80
2018-10-12T22:42:21.277Z,26.57
2018-10-12T22:44:55.904Z,26.20
2018-10-12T22:47:30.622Z,27.17
2018-10-12T22:50:06.403Z,28.13
2018-10-12T22:52:41.081Z,27.13
2018-10-12T22:55:25.664Z,27.07
2018-10-12T22:58:03.619Z,27.03
2018-10-12T23:00:40.757Z,27.03
2018-10-12T23:03:15.677Z,27.77
2018-10-12T23:05:50.608Z,28.03
2018-10-12T23:08:25.748Z,26.67
2018-10-12T23:11:00.381Z,27.50
2018-10-12T23:13:39.816Z,26.63
2018-10-12T23:16:13.819Z,27.67
2018-10-12T23:18:52.647Z,27.17
2018-10-12T23:21:27.147Z,27.33
2018-10-12T23:26:40.046Z,27.67
2018-10-12T23:29:14.346Z,28.07
2018-10-12T23:31:48.500Z,28.27
2018-10-12T23:34:23.472Z,27.30
2018-10-12T23:36:57.634Z,28.50
2018-10-12T23:39:31.592Z,28.07
2018-10-12T23:42:05.711Z,27.50
2018-10-12T23:44:39.642Z,28.70
2018-10-12T23:47:13.832Z,27.20
2018-10-12T23:49:48.904Z,28.53
2018-10-12T23:55:01.112Z,26.73
2018-10-12T23:57:41.272Z,27.87
